Wright Patterson Air Force Base
KFFO : rendu visible

Aérodrome :











RETROUVEZ-NOUS SUR...

 
LOGIN :

S'inscrire | Disclaimer

   EN    FR    IT 

 









Légende :    VFR   VFR Marginal   IFR   IFR Intensif   IFR Très Intensif
Visi : 
Plafond : 
>= 8 km
>= 3000ft
5 à 8 km
1000 à 3000 ft
1500m à 5 km
500 à 1000 ft
800 à 1500m
200 à 500 ft
< 800m
< 200 ft
Symboles :   Orages  Brouillard  Fortes neiges  Fortes précipitations  Vent > 20 kt






- Altitude de l'aérodrome : 823 ft


KFFO - Wright Patterson Air Force Base

DERNIER METAR :
  • 162256Z AUTO 03008KT 10SM CLR 02/M03 A3026 RMK AO2 SLP259 T00241033

METARs EXPIRÉS :
  • 162156Z AUTO 02007KT 10SM CLR 05/M03 A3025 RMK AO2 SLP254 T00461032
  • 162056Z AUTO 02008KT 10SM CLR 06/M03 A3026 RMK AO2 SLP257 T00561030 57021

TAF TAF KFFO
Valide du 16 à 19h jusqu'au 18 à 01h UTC


161900Z 1619/1801 06012KT 9999 FEW250 QNH3021INS
BECMG 1623/1624 VRB06KT 9999 FEW100 QNH2990INS TX08/1620Z TNM03/1711Z



MET'MAP, la Météo Aéronautique d'un coup d'oeil ! - Copyright ORBIFLY Décembre 2007 - Disclaimer

ORBIFLY MET'MAP TEAM :

Programmation & Développement : Alexandra Zaïnal
Conception & Développement : Baudouin d'Aumeries
Co-Programmation & Développement : Marc-Olivier Méhu
Soutien technique & logistique : Manuel Goepfert

Contact : metmap@orbifly.com




SOURCES & CREDITS :

   NOAA       Earth
Advisory